createdAt,value
2023-02-28T00:03:57.401Z,75.44
2023-02-28T00:09:21.943Z,75.44
2023-02-28T00:14:47.053Z,75.68
2023-02-28T00:20:13.069Z,75.85
2023-02-28T00:25:37.373Z,75.73
2023-02-28T00:31:01.668Z,75.72
2023-02-28T00:36:26.626Z,75.46
2023-02-28T00:41:51.326Z,75.68
2023-02-28T00:47:17.377Z,76.03
2023-02-28T00:52:42.451Z,75.92
2023-02-28T00:58:07.072Z,76.17
2023-02-28T01:03:31.340Z,76.23
2023-02-28T01:08:56.559Z,76.29
2023-02-28T01:14:21.078Z,76.20
2023-02-28T01:19:45.574Z,75.83
2023-02-28T01:25:10.413Z,76.33
2023-02-28T01:30:35.604Z,76.16
2023-02-28T01:36:01.357Z,76.22
2023-02-28T01:41:32.774Z,76.01
2023-02-28T01:46:58.411Z,76.06
2023-02-28T01:52:26.391Z,76.35
2023-02-28T01:57:56.521Z,76.43
2023-02-28T02:03:21.926Z,76.53
2023-02-28T02:08:46.246Z,76.61
2023-02-28T02:14:15.903Z,76.56
2023-02-28T02:20:02.457Z,76.59
2023-02-28T02:25:30.273Z,76.41
2023-02-28T02:31:06.178Z,75.75
2023-02-28T02:36:40.148Z,76.59
2023-02-28T02:42:13.588Z,76.69
2023-02-28T02:47:39.785Z,76.12
2023-02-28T02:53:06.742Z,76.31
2023-02-28T02:58:37.352Z,76.37
2023-02-28T03:04:10.152Z,76.41
2023-02-28T03:09:36.949Z,76.38
2023-02-28T03:15:22.983Z,76.11
2023-02-28T03:20:55.494Z,76.08
2023-02-28T03:26:24.264Z,76.23
2023-02-28T03:32:23.080Z,76.27
2023-02-28T03:37:49.198Z,76.14
2023-02-28T03:43:21.745Z,75.90
2023-02-28T03:48:53.734Z,76.39
2023-02-28T03:54:24.688Z,76.36
2023-02-28T03:59:58.363Z,76.06
2023-02-28T04:05:24.649Z,75.83
2023-02-28T04:11:02.485Z,76.04
2023-02-28T04:16:35.094Z,75.96
2023-02-28T04:21:59.641Z,76.09
2023-02-28T04:27:23.869Z,76.28
2023-02-28T04:32:49.376Z,76.25
2023-02-28T04:38:14.721Z,76.30
2023-02-28T04:43:39.512Z,76.67
2023-02-28T04:49:04.333Z,76.55
2023-02-28T04:54:29.696Z,76.47
2023-02-28T04:59:54.034Z,76.53
2023-02-28T05:05:19.400Z,76.45
2023-02-28T05:10:44.151Z,76.56
2023-02-28T05:16:09.158Z,76.63
2023-02-28T05:21:39.421Z,76.51
2023-02-28T05:27:04.753Z,76.19
2023-02-28T05:32:29.102Z,76.12
2023-02-28T05:37:54.727Z,75.78
2023-02-28T05:43:19.386Z,75.49
2023-02-28T05:48:48.991Z,75.78
2023-02-28T05:54:14.593Z,75.19
2023-02-28T05:59:41.269Z,75.20
2023-02-28T06:05:05.332Z,75.62
2023-02-28T06:10:30.397Z,75.55
2023-02-28T06:15:56.289Z,75.60
2023-02-28T06:21:21.145Z,75.69
2023-02-28T06:26:45.704Z,75.82
2023-02-28T06:32:10.801Z,75.90
2023-02-28T06:37:35.187Z,75.63
2023-02-28T06:42:59.485Z,75.64
2023-02-28T06:48:25.534Z,75.61
2023-02-28T06:53:50.401Z,75.88
2023-02-28T06:59:14.775Z,75.75
2023-02-28T07:04:40.863Z,75.94
2023-02-28T07:10:05.743Z,75.48
2023-02-28T07:15:30.080Z,75.35
2023-02-28T07:20:55.812Z,74.71
2023-02-28T07:26:22.288Z,74.87
2023-02-28T07:31:47.940Z,74.32
2023-02-28T07:37:12.634Z,74.45
2023-02-28T07:42:38.121Z,74.38
2023-02-28T07:48:02.761Z,73.93
2023-02-28T07:53:29.231Z,72.73
2023-02-28T07:58:54.187Z,72.61
2023-02-28T08:04:19.859Z,72.09
2023-02-28T08:09:44.914Z,71.71
2023-02-28T08:15:09.706Z,71.45
2023-02-28T08:20:34.060Z,70.01
2023-02-28T08:25:59.112Z,69.96
2023-02-28T08:31:24.582Z,68.96
2023-02-28T08:36:48.660Z,67.63
2023-02-28T08:42:13.235Z,66.78
2023-02-28T08:47:37.224Z,66.89
2023-02-28T08:53:01.872Z,66.01
2023-02-28T08:58:27.319Z,65.14
2023-02-28T09:03:52.810Z,64.50
2023-02-28T09:09:17.186Z,64.74
2023-02-28T09:14:41.780Z,64.13
2023-02-28T09:20:06.872Z,64.78
2023-02-28T09:25:31.563Z,62.61
2023-02-28T09:30:58.932Z,62.41
2023-02-28T09:36:34.486Z,62.75
2023-02-28T09:42:08.945Z,60.90
2023-02-28T09:47:38.180Z,60.75
2023-02-28T09:53:12.658Z,61.59
2023-02-28T09:58:58.159Z,60.92
2023-02-28T10:04:27.057Z,58.70
2023-02-28T10:09:56.370Z,59.25
2023-02-28T10:15:23.347Z,59.78
2023-02-28T10:20:49.131Z,58.30
2023-02-28T10:26:17.472Z,57.63
2023-02-28T10:31:42.258Z,57.38
2023-02-28T10:37:10.635Z,56.30
2023-02-28T10:42:40.192Z,58.11
2023-02-28T10:48:26.198Z,55.22
2023-02-28T10:54:03.095Z,55.99
2023-02-28T10:59:32.501Z,55.71
2023-02-28T11:04:57.326Z,54.39
2023-02-28T11:10:27.308Z,54.20
2023-02-28T11:16:00.423Z,56.23
2023-02-28T11:21:31.484Z,55.66
2023-02-28T11:26:56.474Z,56.26
2023-02-28T11:32:24.180Z,55.49
2023-02-28T11:37:48.869Z,55.88
2023-02-28T11:43:28.600Z,55.76
2023-02-28T11:49:32.754Z,55.52
2023-02-28T11:54:57.187Z,56.52
2023-02-28T12:00:42.087Z,56.07
2023-02-28T12:06:15.129Z,53.57
2023-02-28T12:12:00.813Z,55.93
2023-02-28T12:17:39.013Z,57.88
2023-02-28T12:23:25.488Z,56.16
2023-02-28T12:28:54.718Z,56.82
2023-02-28T12:34:24.418Z,56.91
2023-02-28T12:39:54.332Z,52.66
2023-02-28T12:45:22.794Z,53.42
2023-02-28T12:50:49.284Z,54.23
2023-02-28T12:56:47.401Z,54.59
2023-02-28T13:02:40.482Z,54.19
2023-02-28T13:08:25.994Z,54.52
2023-02-28T13:13:58.325Z,55.18
2023-02-28T13:19:24.617Z,52.97
2023-02-28T13:24:57.731Z,55.44
2023-02-28T13:30:54.300Z,52.47
2023-02-28T13:36:21.411Z,55.33
2023-02-28T13:41:47.194Z,52.43
2023-02-28T13:47:14.345Z,53.89
2023-02-28T13:53:05.936Z,51.71
2023-02-28T13:58:41.928Z,50.60
2023-02-28T14:04:19.031Z,53.75
2023-02-28T14:09:51.100Z,52.31
2023-02-28T14:15:46.162Z,55.01
2023-02-28T14:21:22.874Z,54.77
2023-02-28T14:27:16.516Z,54.22
2023-02-28T14:32:51.986Z,53.93
2023-02-28T14:38:23.539Z,52.68
2023-02-28T14:43:54.669Z,54.56
2023-02-28T14:49:18.990Z,52.35
2023-02-28T14:54:44.991Z,52.87
2023-02-28T15:00:17.864Z,54.23
2023-02-28T15:05:42.883Z,52.37
2023-02-28T15:11:16.469Z,51.31
2023-02-28T15:16:42.736Z,53.40
2023-02-28T15:22:18.101Z,52.44
2023-02-28T15:27:57.107Z,53.36
2023-02-28T15:33:30.208Z,53.63
2023-02-28T15:38:57.734Z,55.35
2023-02-28T15:44:25.736Z,54.43
2023-02-28T15:49:54.793Z,54.86
2023-02-28T15:55:25.423Z,55.35
2023-02-28T16:01:06.201Z,55.00
2023-02-28T16:06:41.047Z,55.37
2023-02-28T16:12:06.912Z,57.18
2023-02-28T16:17:39.022Z,57.69
2023-02-28T16:23:04.192Z,57.36
2023-02-28T16:28:38.215Z,57.29
2023-02-28T16:34:02.457Z,57.03
2023-02-28T16:39:27.113Z,57.18
2023-02-28T16:44:52.582Z,56.82
2023-02-28T16:50:24.055Z,57.01
2023-02-28T16:55:48.953Z,57.22
2023-02-28T17:01:13.345Z,57.55
2023-02-28T17:06:37.905Z,57.47
2023-02-28T17:12:03.000Z,57.99
2023-02-28T17:17:27.973Z,59.33
2023-02-28T17:22:53.054Z,59.89
2023-02-28T17:28:17.633Z,60.33
2023-02-28T17:33:42.763Z,60.77
2023-02-28T17:39:15.137Z,60.68
2023-02-28T17:44:39.776Z,60.62
2023-02-28T17:50:06.287Z,60.84
2023-02-28T17:55:31.134Z,61.02
2023-02-28T18:00:55.763Z,60.97
2023-02-28T18:06:32.518Z,60.98
2023-02-28T18:11:57.784Z,61.62
2023-02-28T18:17:22.200Z,61.65
2023-02-28T18:22:47.979Z,61.71
2023-02-28T18:28:13.140Z,62.03
2023-02-28T18:33:38.154Z,62.41
2023-02-28T18:39:02.280Z,62.33
2023-02-28T18:44:26.941Z,62.33
2023-02-28T18:49:51.376Z,62.94
2023-02-28T18:55:19.407Z,63.39
2023-02-28T19:00:44.772Z,63.68
2023-02-28T19:06:10.888Z,63.78
2023-02-28T19:11:36.893Z,63.82
2023-02-28T19:17:01.496Z,64.25
2023-02-28T19:22:26.655Z,64.08
2023-02-28T19:27:55.724Z,64.54
2023-02-28T19:33:21.249Z,64.76
2023-02-28T19:38:46.260Z,64.67
2023-02-28T19:44:10.910Z,65.14
2023-02-28T19:49:35.499Z,65.29
2023-02-28T19:55:00.677Z,65.71
2023-02-28T20:00:25.919Z,65.69
2023-02-28T20:06:01.524Z,65.78
2023-02-28T20:11:26.079Z,65.98
2023-02-28T20:16:51.233Z,66.34
2023-02-28T20:22:17.278Z,66.82
2023-02-28T20:27:41.808Z,67.07
2023-02-28T20:33:06.574Z,67.18
2023-02-28T20:38:31.395Z,67.21
2023-02-28T20:43:58.526Z,67.21
2023-02-28T20:49:23.381Z,67.23
2023-02-28T20:54:48.238Z,67.19
2023-02-28T21:00:16.603Z,66.90
2023-02-28T21:05:41.849Z,66.97
2023-02-28T21:11:11.500Z,67.26
2023-02-28T21:16:37.900Z,67.32
2023-02-28T21:22:02.946Z,67.44
2023-02-28T21:27:27.066Z,67.70
2023-02-28T21:32:52.150Z,67.92
2023-02-28T21:38:17.849Z,68.31
2023-02-28T21:43:44.328Z,68.32
2023-02-28T21:49:08.513Z,68.54
2023-02-28T21:54:33.195Z,68.59
2023-02-28T21:59:57.364Z,68.65
2023-02-28T22:05:21.611Z,68.72
2023-02-28T22:10:47.263Z,69.08
2023-02-28T22:16:17.112Z,69.17
2023-02-28T22:21:42.138Z,69.18
2023-02-28T22:27:07.003Z,69.36
2023-02-28T22:32:31.173Z,69.32
2023-02-28T22:37:57.208Z,69.38
2023-02-28T22:43:22.596Z,69.71
2023-02-28T22:48:49.041Z,69.55
2023-02-28T22:54:13.024Z,69.83
2023-02-28T22:59:37.454Z,70.21
2023-02-28T23:05:01.506Z,69.96
2023-02-28T23:10:25.618Z,70.21
2023-02-28T23:15:50.583Z,70.14
2023-02-28T23:21:15.070Z,69.95
2023-02-28T23:26:42.616Z,69.79
2023-02-28T23:32:07.214Z,69.62
2023-02-28T23:37:32.633Z,69.44
2023-02-28T23:42:56.685Z,69.41
2023-02-28T23:48:21.712Z,69.68
2023-02-28T23:53:50.384Z,69.60
2023-02-28T23:59:15.085Z,69.71
